sensor_id;sensor_type;location;lat;lon;timestamp;pressure;altitude;pressure_sealevel;temperature;humidity
77079;BME280;66004;55.096;38.760;2023-05-07T00:01:54;101169.53;;;-0.45;61.10
77079;BME280;66004;55.096;38.760;2023-05-07T00:04:19;101172.78;;;-0.48;61.31
77079;BME280;66004;55.096;38.760;2023-05-07T00:06:45;101172.78;;;-0.48;61.16
77079;BME280;66004;55.096;38.760;2023-05-07T00:09:11;101174.94;;;-0.50;60.84
77079;BME280;66004;55.096;38.760;2023-05-07T00:11:36;101175.41;;;-0.53;61.22
77079;BME280;66004;55.096;38.760;2023-05-07T00:14:02;101175.41;;;-0.53;61.22
77079;BME280;66004;55.096;38.760;2023-05-07T00:16:27;101176.72;;;-0.55;61.25
77079;BME280;66004;55.096;38.760;2023-05-07T00:18:53;101167.47;;;-0.61;61.19
77079;BME280;66004;55.096;38.760;2023-05-07T00:21:18;101177.69;;;-0.62;61.57
77079;BME280;66004;55.096;38.760;2023-05-07T00:23:44;101174.34;;;-0.64;61.58
77079;BME280;66004;55.096;38.760;2023-05-07T00:26:09;101179.00;;;-0.64;61.50
77079;BME280;66004;55.096;38.760;2023-05-07T00:28:35;101169.50;;;-0.68;61.74
77079;BME280;66004;55.096;38.760;2023-05-07T00:31:01;101163.88;;;-0.73;61.60
77079;BME280;66004;55.096;38.760;2023-05-07T00:33:26;101187.19;;;-0.69;61.54
77079;BME280;66004;55.096;38.760;2023-05-07T00:35:52;101185.47;;;-0.70;61.78
77079;BME280;66004;55.096;38.760;2023-05-07T00:38:19;101182.56;;;-0.75;61.79
77079;BME280;66004;55.096;38.760;2023-05-07T00:40:45;101180.91;;;-0.76;61.86
77079;BME280;66004;55.096;38.760;2023-05-07T00:43:11;101182.56;;;-0.75;61.86
77079;BME280;66004;55.096;38.760;2023-05-07T00:45:38;101189.56;;;-0.73;61.89
77079;BME280;66004;55.096;38.760;2023-05-07T00:48:04;101179.59;;;-0.74;61.79
77079;BME280;66004;55.096;38.760;2023-05-07T00:50:30;101191.00;;;-0.70;61.92
77079;BME280;66004;55.096;38.760;2023-05-07T00:52:56;101189.34;;;-0.71;61.74
77079;BME280;66004;55.096;38.760;2023-05-07T00:55:22;101192.09;;;-0.71;61.98
77079;BME280;66004;55.096;38.760;2023-05-07T00:57:49;101192.34;;;-0.73;61.91
77079;BME280;66004;55.096;38.760;2023-05-07T01:00:15;101190.63;;;-0.74;61.99
77079;BME280;66004;55.096;38.760;2023-05-07T01:02:41;101193.16;;;-0.72;61.92
77079;BME280;66004;55.096;38.760;2023-05-07T01:05:09;101191.25;;;-0.72;62.01
77079;BME280;66004;55.096;38.760;2023-05-07T01:07:37;101178.16;;;-0.76;62.22
77079;BME280;66004;55.096;38.760;2023-05-07T01:10:04;101170.81;;;-0.83;62.15
77079;BME280;66004;55.096;38.760;2023-05-07T01:12:30;101194.88;;;-0.71;62.29
77079;BME280;66004;55.096;38.760;2023-05-07T01:14:57;101194.88;;;-0.71;62.28
77079;BME280;66004;55.096;38.760;2023-05-07T01:17:22;101195.69;;;-0.71;62.39
77079;BME280;66004;55.096;38.760;2023-05-07T01:19:48;101194.25;;;-0.73;62.38
77079;BME280;66004;55.096;38.760;2023-05-07T01:22:14;101197.84;;;-0.73;62.32
77079;BME280;66004;55.096;38.760;2023-05-07T01:24:41;101199.16;;;-0.75;62.42
77079;BME280;66004;55.096;38.760;2023-05-07T01:27:07;101203.00;;;-0.76;62.66
77079;BME280;66004;55.096;38.760;2023-05-07T01:29:33;101196.75;;;-0.84;62.81
77079;BME280;66004;55.096;38.760;2023-05-07T01:32:00;101210.22;;;-0.75;62.86
77079;BME280;66004;55.096;38.760;2023-05-07T01:34:28;101209.38;;;-0.76;62.91
77079;BME280;66004;55.096;38.760;2023-05-07T01:36:56;101211.31;;;-0.76;62.86
77079;BME280;66004;55.096;38.760;2023-05-07T01:39:29;101203.47;;;-0.80;62.98
77079;BME280;66004;55.096;38.760;2023-05-07T01:41:55;101210.22;;;-0.75;63.04
77079;BME280;66004;55.096;38.760;2023-05-07T01:44:22;101213.59;;;-0.73;62.86
77079;BME280;66004;55.096;38.760;2023-05-07T01:46:48;101211.44;;;-0.71;63.03
77079;BME280;66004;55.096;38.760;2023-05-07T01:49:14;101215.28;;;-0.72;62.84
77079;BME280;66004;55.096;38.760;2023-05-07T01:51:40;101211.44;;;-0.71;62.67
77079;BME280;66004;55.096;38.760;2023-05-07T01:54:06;101214.81;;;-0.69;62.75
77079;BME280;66004;55.096;38.760;2023-05-07T01:56:33;101218.66;;;-0.70;62.99
77079;BME280;66004;55.096;38.760;2023-05-07T01:58:59;101216.97;;;-0.71;62.79
77079;BME280;66004;55.096;38.760;2023-05-07T02:01:25;101219.84;;;-0.66;63.03
77079;BME280;66004;55.096;38.760;2023-05-07T02:03:50;101230.91;;;-0.66;63.00
77079;BME280;66004;55.096;38.760;2023-05-07T02:06:16;101238.13;;;-0.65;62.91
77079;BME280;66004;55.096;38.760;2023-05-07T02:08:41;101229.69;;;-0.70;63.06
77079;BME280;66004;55.096;38.760;2023-05-07T02:11:07;101240.28;;;-0.67;63.11
77079;BME280;66004;55.096;38.760;2023-05-07T02:13:33;101238.13;;;-0.65;63.15
77079;BME280;66004;55.096;38.760;2023-05-07T02:16:00;101240.66;;;-0.64;63.17
77079;BME280;66004;55.096;38.760;2023-05-07T02:18:25;101248.72;;;-0.62;62.91
77079;BME280;66004;55.096;38.760;2023-05-07T02:20:51;101247.84;;;-0.63;62.79
77079;BME280;66004;55.096;38.760;2023-05-07T02:23:16;101254.84;;;-0.60;63.23
77079;BME280;66004;55.096;38.760;2023-05-07T02:25:42;101252.09;;;-0.60;62.99
77079;BME280;66004;55.096;38.760;2023-05-07T02:28:07;101259.66;;;-0.55;62.96
77079;BME280;66004;55.096;38.760;2023-05-07T02:30:33;101258.34;;;-0.53;62.90
77079;BME280;66004;55.096;38.760;2023-05-07T02:32:59;101253.53;;;-0.46;62.71
77079;BME280;66004;55.096;38.760;2023-05-07T02:35:25;101256.44;;;-0.41;63.05
77079;BME280;66004;55.096;38.760;2023-05-07T02:37:50;101259.34;;;-0.35;62.98
77079;BME280;66004;55.096;38.760;2023-05-07T02:40:16;101247.94;;;-0.39;62.69
77079;BME280;66004;55.096;38.760;2023-05-07T02:42:41;101261.41;;;-0.31;62.72
77079;BME280;66004;55.096;38.760;2023-05-07T02:45:07;101257.94;;;-0.26;62.65
77079;BME280;66004;55.096;38.760;2023-05-07T02:47:33;101259.13;;;-0.22;62.66
77079;BME280;66004;55.096;38.760;2023-05-07T02:52:15;101266.69;;;-0.17;61.95
77079;BME280;66004;55.096;38.760;2023-05-07T02:54:40;101270.94;;;-0.15;62.19
77079;BME280;66004;55.096;38.760;2023-05-07T02:57:06;101273.81;;;-0.10;62.26
77079;BME280;66004;55.096;38.760;2023-05-07T02:59:31;101284.41;;;-0.07;62.66
77079;BME280;66004;55.096;38.760;2023-05-07T03:01:57;101276.09;;;-0.07;62.47
77079;BME280;66004;55.096;38.760;2023-05-07T03:04:22;101262.88;;;-0.16;62.60
77079;BME280;66004;55.096;38.760;2023-05-07T03:06:48;101286.81;;;0.02;62.75
77079;BME280;66004;55.096;38.760;2023-05-07T03:09:13;101291.41;;;0.08;62.74
77079;BME280;66004;55.096;38.760;2023-05-07T03:11:39;101287.06;;;0.12;62.70
77079;BME280;66004;55.096;38.760;2023-05-07T03:14:05;101281.53;;;0.12;62.50
77079;BME280;66004;55.096;38.760;2023-05-07T03:16:30;101297.06;;;0.25;62.61
77079;BME280;66004;55.096;38.760;2023-05-07T03:18:56;101288.84;;;0.30;62.68
77079;BME280;66004;55.096;38.760;2023-05-07T03:21:21;101284.19;;;0.30;62.35
77079;BME280;66004;55.096;38.760;2023-05-07T03:23:46;101298.97;;;0.48;62.50
77079;BME280;66004;55.096;38.760;2023-05-07T03:26:12;101308.00;;;0.55;62.46
77079;BME280;66004;55.096;38.760;2023-05-07T03:28:37;101301.97;;;0.58;62.46
77079;BME280;66004;55.096;38.760;2023-05-07T03:31:03;101312.56;;;0.61;62.52
77079;BME280;66004;55.096;38.760;2023-05-07T03:33:29;101310.16;;;0.65;62.30
77079;BME280;66004;55.096;38.760;2023-05-07T03:35:54;101307.22;;;0.71;62.42
77079;BME280;66004;55.096;38.760;2023-05-07T03:38:20;101308.47;;;0.75;62.32
77079;BME280;66004;55.096;38.760;2023-05-07T03:40:45;101311.91;;;0.83;62.36
77079;BME280;66004;55.096;38.760;2023-05-07T03:43:11;101314.56;;;0.89;62.12
77079;BME280;66004;55.096;38.760;2023-05-07T03:45:36;101307.69;;;0.92;62.09
77079;BME280;66004;55.096;38.760;2023-05-07T03:48:02;101312.47;;;1.08;62.12
77079;BME280;66004;55.096;38.760;2023-05-07T03:50:27;101309.81;;;1.13;61.74
77079;BME280;66004;55.096;38.760;2023-05-07T03:52:53;101308.31;;;1.23;61.98
77079;BME280;66004;55.096;38.760;2023-05-07T03:55:18;101317.41;;;1.35;61.83
77079;BME280;66004;55.096;38.760;2023-05-07T03:57:44;101314.28;;;1.43;61.52
77079;BME280;66004;55.096;38.760;2023-05-07T04:00:10;101320.00;;;1.53;61.36
77079;BME280;66004;55.096;38.760;2023-05-07T04:02:36;101321.38;;;1.68;61.13
77079;BME280;66004;55.096;38.760;2023-05-07T04:05:01;101319.25;;;1.75;60.82
77079;BME280;66004;55.096;38.760;2023-05-07T04:07:27;101321.06;;;1.81;60.52
77079;BME280;66004;55.096;38.760;2023-05-07T04:09:52;101325.94;;;1.91;60.57
77079;BME280;66004;55.096;38.760;2023-05-07T04:12:18;101317.72;;;1.96;59.91
77079;BME280;66004;55.096;38.760;2023-05-07T04:14:44;101326.44;;;2.05;59.74
77079;BME280;66004;55.096;38.760;2023-05-07T04:17:10;101327.22;;;2.17;59.51
77079;BME280;66004;55.096;38.760;2023-05-07T04:19:36;101324.09;;;2.30;59.50
77079;BME280;66004;55.096;38.760;2023-05-07T04:22:01;101325.94;;;2.42;59.12
77079;BME280;66004;55.096;38.760;2023-05-07T04:24:27;101332.75;;;2.51;58.89
77079;BME280;66004;55.096;38.760;2023-05-07T04:26:52;101334.00;;;2.60;58.38
77079;BME280;66004;55.096;38.760;2023-05-07T04:29:18;101330.09;;;2.61;57.89
77079;BME280;66004;55.096;38.760;2023-05-07T04:31:44;101339.69;;;2.70;57.94
77079;BME280;66004;55.096;38.760;2023-05-07T04:34:12;101329.25;;;2.78;57.65
77079;BME280;66004;55.096;38.760;2023-05-07T04:36:38;101329.19;;;2.95;57.65
77079;BME280;66004;55.096;38.760;2023-05-07T04:39:04;101345.16;;;3.04;57.27
77079;BME280;66004;55.096;38.760;2023-05-07T04:41:29;101350.22;;;3.07;56.53
77079;BME280;66004;55.096;38.760;2023-05-07T04:43:55;101351.06;;;3.08;56.15
77079;BME280;66004;55.096;38.760;2023-05-07T04:46:22;101339.53;;;2.99;55.90
77079;BME280;66004;55.096;38.760;2023-05-07T04:48:49;101354.09;;;3.06;55.89
77079;BME280;66004;55.096;38.760;2023-05-07T04:51:14;101348.03;;;3.09;55.92
77079;BME280;66004;55.096;38.760;2023-05-07T04:53:40;101344.78;;;3.18;55.71
77079;BME280;66004;55.096;38.760;2023-05-07T04:56:05;101349.38;;;3.29;55.43
77079;BME280;66004;55.096;38.760;2023-05-07T04:58:31;101351.63;;;3.32;54.76
77079;BME280;66004;55.096;38.760;2023-05-07T05:00:58;101351.22;;;3.45;54.80
77079;BME280;66004;55.096;38.760;2023-05-07T05:03:23;101341.91;;;3.57;54.39
77079;BME280;66004;55.096;38.760;2023-05-07T05:05:50;101355.16;;;3.72;54.26
77079;BME280;66004;55.096;38.760;2023-05-07T05:08:17;101354.91;;;3.78;53.95
77079;BME280;66004;55.096;38.760;2023-05-07T05:10:43;101353.16;;;3.94;53.49
77079;BME280;66004;55.096;38.760;2023-05-07T05:13:09;101348.94;;;4.56;52.41
77079;BME280;66004;55.096;38.760;2023-05-07T05:15:34;101357.59;;;4.65;52.02
77079;BME280;66004;55.096;38.760;2023-05-07T05:18:00;101355.63;;;4.60;51.81
77079;BME280;66004;55.096;38.760;2023-05-07T05:20:26;101350.53;;;4.47;52.13
77079;BME280;66004;55.096;38.760;2023-05-07T05:22:51;101344.34;;;4.40;51.36
77079;BME280;66004;55.096;38.760;2023-05-07T05:25:17;101352.13;;;4.38;50.97
77079;BME280;66004;55.096;38.760;2023-05-07T05:27:42;101353.78;;;4.39;51.28
77079;BME280;66004;55.096;38.760;2023-05-07T05:30:08;101356.09;;;4.47;51.20
77079;BME280;66004;55.096;38.760;2023-05-07T05:32:34;101357.31;;;4.61;50.56
77079;BME280;66004;55.096;38.760;2023-05-07T05:34:59;101356.78;;;4.64;50.25
77079;BME280;66004;55.096;38.760;2023-05-07T05:37:25;101359.47;;;4.49;49.23
77079;BME280;66004;55.096;38.760;2023-05-07T05:39:50;101351.81;;;4.34;48.58
77079;BME280;66004;55.096;38.760;2023-05-07T05:42:16;101361.56;;;4.37;48.38
77079;BME280;66004;55.096;38.760;2023-05-07T05:44:41;101359.91;;;4.36;48.66
77079;BME280;66004;55.096;38.760;2023-05-07T05:47:07;101354.38;;;4.41;48.54
77079;BME280;66004;55.096;38.760;2023-05-07T05:49:32;101360.06;;;4.56;47.47
77079;BME280;66004;55.096;38.760;2023-05-07T05:51:59;101357.91;;;4.68;46.40
77079;BME280;66004;55.096;38.760;2023-05-07T05:54:24;101357.38;;;4.72;46.30
77079;BME280;66004;55.096;38.760;2023-05-07T05:56:49;101364.09;;;4.76;45.21
77079;BME280;66004;55.096;38.760;2023-05-07T05:59:15;101355.47;;;4.77;43.96
77079;BME280;66004;55.096;38.760;2023-05-07T06:01:41;101365.22;;;4.75;44.54
77079;BME280;66004;55.096;38.760;2023-05-07T06:04:06;101366.97;;;4.86;44.43
77079;BME280;66004;55.096;38.760;2023-05-07T06:06:32;101366.50;;;5.04;43.99
77079;BME280;66004;55.096;38.760;2023-05-07T06:08:58;101366.63;;;5.30;43.27
77079;BME280;66004;55.096;38.760;2023-05-07T06:11:23;101347.63;;;5.27;43.78
77079;BME280;66004;55.096;38.760;2023-05-07T06:13:49;101373.66;;;5.43;43.29
77079;BME280;66004;55.096;38.760;2023-05-07T06:16:14;101371.72;;;5.49;42.79
77079;BME280;66004;55.096;38.760;2023-05-07T06:18:40;101371.28;;;5.82;42.60
77079;BME280;66004;55.096;38.760;2023-05-07T06:21:05;101366.31;;;6.31;41.15
77079;BME280;66004;55.096;38.760;2023-05-07T06:23:31;101371.34;;;6.65;40.64
77079;BME280;66004;55.096;38.760;2023-05-07T06:25:56;101375.53;;;6.88;40.38
77079;BME280;66004;55.096;38.760;2023-05-07T06:28:22;101393.69;;;6.95;40.09
77079;BME280;66004;55.096;38.760;2023-05-07T06:30:47;101369.00;;;7.18;39.32
77079;BME280;66004;55.096;38.760;2023-05-07T06:33:15;101379.50;;;7.52;39.26
77079;BME280;66004;55.096;38.760;2023-05-07T06:35:41;101374.00;;;7.31;39.63
77079;BME280;66004;55.096;38.760;2023-05-07T06:38:06;101384.19;;;6.81;40.67
77079;BME280;66004;55.096;38.760;2023-05-07T06:40:32;101380.88;;;6.43;41.46
77079;BME280;66004;55.096;38.760;2023-05-07T06:42:57;101389.25;;;6.38;41.37
77079;BME280;66004;55.096;38.760;2023-05-07T06:45:23;101393.16;;;6.27;41.41
77079;BME280;66004;55.096;38.760;2023-05-07T06:47:49;101386.41;;;5.97;41.65
77079;BME280;66004;55.096;38.760;2023-05-07T06:50:15;101377.91;;;5.56;41.84
77079;BME280;66004;55.096;38.760;2023-05-07T06:52:41;101381.50;;;5.51;42.35
77079;BME280;66004;55.096;38.760;2023-05-07T06:55:08;101319.78;;;5.47;41.71
77079;BME280;66004;55.096;38.760;2023-05-07T06:57:33;101384.75;;;6.62;40.60
77079;BME280;66004;55.096;38.760;2023-05-07T06:59:58;101381.34;;;7.01;39.46
77079;BME280;66004;55.096;38.760;2023-05-07T07:02:24;101386.84;;;7.37;38.53
77079;BME280;66004;55.096;38.760;2023-05-07T07:04:49;101389.44;;;7.18;38.90
77079;BME280;66004;55.096;38.760;2023-05-07T07:07:15;101383.00;;;7.02;39.02
77079;BME280;66004;55.096;38.760;2023-05-07T07:09:41;101391.75;;;6.80;38.02
77079;BME280;66004;55.096;38.760;2023-05-07T07:12:06;101380.31;;;6.46;37.36
77079;BME280;66004;55.096;38.760;2023-05-07T07:14:32;101374.16;;;6.34;37.89
77079;BME280;66004;55.096;38.760;2023-05-07T07:16:57;101384.50;;;6.28;37.96
77079;BME280;66004;55.096;38.760;2023-05-07T07:19:23;101378.88;;;6.38;38.06
77079;BME280;66004;55.096;38.760;2023-05-07T07:21:48;101370.22;;;6.71;37.71
77079;BME280;66004;55.096;38.760;2023-05-07T07:24:14;101380.22;;;7.08;37.35
77079;BME280;66004;55.096;38.760;2023-05-07T07:26:44;101379.47;;;6.76;37.91
77079;BME280;66004;55.096;38.760;2023-05-07T07:29:10;101390.38;;;6.32;37.40
77079;BME280;66004;55.096;38.760;2023-05-07T07:31:37;101381.13;;;6.11;37.23
77079;BME280;66004;55.096;38.760;2023-05-07T07:34:02;101380.59;;;6.24;35.79
77079;BME280;66004;55.096;38.760;2023-05-07T07:36:27;101348.72;;;6.30;35.53
77079;BME280;66004;55.096;38.760;2023-05-07T07:38:53;101376.41;;;6.57;36.47
77079;BME280;66004;55.096;38.760;2023-05-07T07:41:19;101362.38;;;6.83;36.26
77079;BME280;66004;55.096;38.760;2023-05-07T07:43:44;101361.69;;;7.27;36.08
77079;BME280;66004;55.096;38.760;2023-05-07T07:46:12;101372.22;;;7.51;36.32
77079;BME280;66004;55.096;38.760;2023-05-07T07:48:37;101367.81;;;7.34;35.99
77079;BME280;66004;55.096;38.760;2023-05-07T07:51:03;101373.47;;;7.14;36.74
77079;BME280;66004;55.096;38.760;2023-05-07T07:53:28;101379.16;;;6.93;37.16
77079;BME280;66004;55.096;38.760;2023-05-07T07:55:54;101376.94;;;6.75;36.74
77079;BME280;66004;55.096;38.760;2023-05-07T07:58:19;101378.63;;;6.71;37.02
77079;BME280;66004;55.096;38.760;2023-05-07T08:00:45;101378.03;;;6.79;36.39
77079;BME280;66004;55.096;38.760;2023-05-07T08:03:12;101360.66;;;6.92;36.11
77079;BME280;66004;55.096;38.760;2023-05-07T08:05:37;101363.88;;;7.35;35.40
77079;BME280;66004;55.096;38.760;2023-05-07T08:08:04;101369.31;;;7.76;34.64
77079;BME280;66004;55.096;38.760;2023-05-07T08:10:29;101367.69;;;7.65;34.44
77079;BME280;66004;55.096;38.760;2023-05-07T08:12:55;101348.19;;;7.39;34.38
77079;BME280;66004;55.096;38.760;2023-05-07T08:15:20;101374.56;;;7.28;34.87
77079;BME280;66004;55.096;38.760;2023-05-07T08:17:46;101374.06;;;7.00;35.18
77079;BME280;66004;55.096;38.760;2023-05-07T08:20:11;101367.41;;;6.76;35.37
77079;BME280;66004;55.096;38.760;2023-05-07T08:22:37;101353.44;;;6.71;35.59
77079;BME280;66004;55.096;38.760;2023-05-07T08:25:03;101368.47;;;7.00;35.30
77079;BME280;66004;55.096;38.760;2023-05-07T08:27:29;101365.06;;;7.14;33.77
77079;BME280;66004;55.096;38.760;2023-05-07T08:29:55;101361.16;;;7.20;33.94
77079;BME280;66004;55.096;38.760;2023-05-07T08:32:21;101360.84;;;7.27;34.01
77079;BME280;66004;55.096;38.760;2023-05-07T08:34:47;101355.56;;;7.20;34.46
77079;BME280;66004;55.096;38.760;2023-05-07T08:37:13;101348.88;;;7.06;34.93
77079;BME280;66004;55.096;38.760;2023-05-07T08:39:38;101362.31;;;7.09;35.48
77079;BME280;66004;55.096;38.760;2023-05-07T08:42:04;101367.91;;;7.04;35.25
77079;BME280;66004;55.096;38.760;2023-05-07T08:44:33;101360.13;;;6.95;34.85
77079;BME280;66004;55.096;38.760;2023-05-07T08:47:00;101352.88;;;6.84;35.14
77079;BME280;66004;55.096;38.760;2023-05-07T09:31:11;101356.34;;;7.86;32.25
77079;BME280;66004;55.096;38.760;2023-05-07T09:33:37;101341.63;;;8.04;31.53
77079;BME280;66004;55.096;38.760;2023-05-07T09:36:07;101362.13;;;8.44;32.07
77079;BME280;66004;55.096;38.760;2023-05-07T09:38:33;101355.22;;;8.61;31.64
77079;BME280;66004;55.096;38.760;2023-05-07T09:41:08;101348.09;;;8.44;30.93
77079;BME280;66004;55.096;38.760;2023-05-07T09:43:38;101366.38;;;8.36;31.75
77079;BME280;66004;55.096;38.760;2023-05-07T09:46:30;101358.00;;;7.92;31.96
77079;BME280;66004;55.096;38.760;2023-05-07T09:49:02;101353.69;;;7.60;32.75
77079;BME280;66004;55.096;38.760;2023-05-07T09:51:39;101369.97;;;7.48;32.75
77079;BME280;66004;55.096;38.760;2023-05-07T09:54:06;101354.94;;;7.33;32.56
77079;BME280;66004;55.096;38.760;2023-05-07T09:56:32;101354.59;;;7.50;31.47
77079;BME280;66004;55.096;38.760;2023-05-07T09:59:02;101358.66;;;7.73;30.70
77079;BME280;66004;55.096;38.760;2023-05-07T10:01:29;101346.66;;;8.07;30.67
77079;BME280;66004;55.096;38.760;2023-05-07T10:03:57;101358.56;;;8.28;30.11
77079;BME280;66004;55.096;38.760;2023-05-07T10:06:24;101337.00;;;8.29;30.39
77079;BME280;66004;55.096;38.760;2023-05-07T10:08:51;101350.38;;;8.37;30.79
77079;BME280;66004;55.096;38.760;2023-05-07T10:11:17;101350.91;;;8.44;30.63
77079;BME280;66004;55.096;38.760;2023-05-07T10:13:44;101344.44;;;8.44;30.11
77079;BME280;66004;55.096;38.760;2023-05-07T10:16:11;101355.09;;;8.47;30.03
77079;BME280;66004;55.096;38.760;2023-05-07T10:18:38;101358.03;;;8.61;29.34
77079;BME280;66004;55.096;38.760;2023-05-07T10:21:11;101361.34;;;8.68;29.95
77079;BME280;66004;55.096;38.760;2023-05-07T10:23:45;101359.59;;;8.72;29.77
77079;BME280;66004;55.096;38.760;2023-05-07T10:26:11;101358.50;;;8.73;30.32
77079;BME280;66004;55.096;38.760;2023-05-07T10:28:40;101373.19;;;8.60;30.26
77079;BME280;66004;55.096;38.760;2023-05-07T10:33:54;101357.38;;;8.00;30.32
77079;BME280;66004;55.096;38.760;2023-05-07T10:36:22;101341.81;;;7.84;29.89
77079;BME280;66004;55.096;38.760;2023-05-07T10:38:48;101368.56;;;8.00;28.74
77079;BME280;66004;55.096;38.760;2023-05-07T10:41:13;101358.31;;;8.25;28.86
77079;BME280;66004;55.096;38.760;2023-05-07T10:43:44;101353.47;;;8.70;28.99
77079;BME280;66004;55.096;38.760;2023-05-07T10:46:18;101349.03;;;9.17;28.24
77079;BME280;66004;55.096;38.760;2023-05-07T10:51:29;101352.44;;;9.14;28.84
77079;BME280;66004;55.096;38.760;2023-05-07T10:56:40;101360.63;;;8.81;29.02
77079;BME280;66004;55.096;38.760;2023-05-07T11:04:20;101363.09;;;8.58;29.71
77079;BME280;66004;55.096;38.760;2023-05-07T11:15:05;101372.81;;;9.01;29.29
77079;BME280;66004;55.096;38.760;2023-05-07T11:17:32;101363.06;;;8.93;27.97
77079;BME280;66004;55.096;38.760;2023-05-07T11:20:01;101360.06;;;8.84;27.74
77079;BME280;66004;55.096;38.760;2023-05-07T11:25:03;101364.59;;;9.28;28.40
77079;BME280;66004;55.096;38.760;2023-05-07T11:27:29;101359.28;;;9.70;28.47
77079;BME280;66004;55.096;38.760;2023-05-07T11:29:54;101357.88;;;10.10;28.16
77079;BME280;66004;55.096;38.760;2023-05-07T11:32:24;101357.66;;;10.07;27.60
77079;BME280;66004;55.096;38.760;2023-05-07T11:34:54;101354.78;;;9.74;27.33
77079;BME280;66004;55.096;38.760;2023-05-07T11:37:27;101356.47;;;9.51;28.29
77079;BME280;66004;55.096;38.760;2023-05-07T11:40:05;101367.31;;;9.39;28.87
77079;BME280;66004;55.096;38.760;2023-05-07T11:42:36;101351.81;;;9.17;29.04
77079;BME280;66004;55.096;38.760;2023-05-07T11:45:03;101375.00;;;9.04;28.32
77079;BME280;66004;55.096;38.760;2023-05-07T11:47:30;101361.34;;;8.68;28.43
77079;BME280;66004;55.096;38.760;2023-05-07T11:49:56;101367.31;;;8.61;29.00
77079;BME280;66004;55.096;38.760;2023-05-07T11:52:22;101364.88;;;8.49;28.66
77079;BME280;66004;55.096;38.760;2023-05-07T11:54:52;101371.66;;;8.38;28.67
77079;BME280;66004;55.096;38.760;2023-05-07T11:57:18;101375.06;;;8.35;28.35
77079;BME280;66004;55.096;38.760;2023-05-07T11:59:44;101355.47;;;8.30;28.73
77079;BME280;66004;55.096;38.760;2023-05-07T12:02:10;101370.25;;;8.75;28.91
77079;BME280;66004;55.096;38.760;2023-05-07T12:04:35;101366.41;;;9.19;28.74
77079;BME280;66004;55.096;38.760;2023-05-07T12:07:01;101365.78;;;9.70;28.21
77079;BME280;66004;55.096;38.760;2023-05-07T12:09:27;101358.78;;;9.87;26.93
77079;BME280;66004;55.096;38.760;2023-05-07T12:11:52;101365.31;;;10.01;27.37
77079;BME280;66004;55.096;38.760;2023-05-07T12:14:18;101362.66;;;10.29;26.22
77079;BME280;66004;55.096;38.760;2023-05-07T12:16:44;101358.94;;;10.14;25.84
77079;BME280;66004;55.096;38.760;2023-05-07T12:19:12;101333.59;;;9.82;26.55
77079;BME280;66004;55.096;38.760;2023-05-07T12:21:39;101341.84;;;9.73;26.81
77079;BME280;66004;55.096;38.760;2023-05-07T12:24:05;101369.06;;;9.78;27.02
77079;BME280;66004;55.096;38.760;2023-05-07T12:26:32;101337.47;;;9.43;26.86
77079;BME280;66004;55.096;38.760;2023-05-07T12:29:02;101347.84;;;9.23;26.89
77079;BME280;66004;55.096;38.760;2023-05-07T12:31:28;101359.13;;;9.18;27.50
77079;BME280;66004;55.096;38.760;2023-05-07T12:33:54;101363.00;;;9.22;27.61
77079;BME280;66004;55.096;38.760;2023-05-07T12:36:21;101344.66;;;9.06;27.50
77079;BME280;66004;55.096;38.760;2023-05-07T12:38:49;101368.25;;;9.05;27.71
77079;BME280;66004;55.096;38.760;2023-05-07T12:41:15;101361.63;;;8.95;27.86
77079;BME280;66004;55.096;38.760;2023-05-07T12:43:44;101355.03;;;8.81;28.05
77079;BME280;66004;55.096;38.760;2023-05-07T12:46:11;101362.81;;;8.89;27.92
77079;BME280;66004;55.096;38.760;2023-05-07T12:48:43;101355.34;;;9.04;27.97
77079;BME280;66004;55.096;38.760;2023-05-07T12:51:10;101355.06;;;9.29;27.62
77079;BME280;66004;55.096;38.760;2023-05-07T12:53:42;101348.63;;;9.29;27.30
77079;BME280;66004;55.096;38.760;2023-05-07T12:56:08;101357.94;;;9.24;27.24
77079;BME280;66004;55.096;38.760;2023-05-07T12:58:34;101362.47;;;9.20;27.05
77079;BME280;66004;55.096;38.760;2023-05-07T13:01:03;101355.31;;;9.09;27.11
77079;BME280;66004;55.096;38.760;2023-05-07T13:03:32;101356.38;;;9.13;27.17
77079;BME280;66004;55.096;38.760;2023-05-07T13:06:01;101366.47;;;9.14;27.00
77079;BME280;66004;55.096;38.760;2023-05-07T13:10:53;101362.19;;;9.22;26.92
77079;BME280;66004;55.096;38.760;2023-05-07T13:13:19;101362.97;;;9.27;27.17
77079;BME280;66004;55.096;38.760;2023-05-07T13:15:45;101359.00;;;9.28;27.14
77079;BME280;66004;55.096;38.760;2023-05-07T13:18:11;101357.44;;;9.17;27.39
77079;BME280;66004;55.096;38.760;2023-05-07T13:20:36;101363.78;;;9.04;27.32
77079;BME280;66004;55.096;38.760;2023-05-07T13:23:02;101348.34;;;8.77;27.50
77079;BME280;66004;55.096;38.760;2023-05-07T13:25:29;101369.59;;;8.83;27.51
77079;BME280;66004;55.096;38.760;2023-05-07T13:27:56;101366.25;;;8.81;27.58
77079;BME280;66004;55.096;38.760;2023-05-07T13:30:22;101362.41;;;8.72;27.42
77079;BME280;66004;55.096;38.760;2023-05-07T13:32:48;101350.59;;;8.75;27.72
77079;BME280;66004;55.096;38.760;2023-05-07T13:35:15;101355.97;;;9.01;28.03
77079;BME280;66004;55.096;38.760;2023-05-07T13:37:41;101363.44;;;9.34;27.74
77079;BME280;66004;55.096;38.760;2023-05-07T13:40:07;101366.56;;;9.52;27.47
77079;BME280;66004;55.096;38.760;2023-05-07T13:42:33;101359.69;;;9.63;27.23
77079;BME280;66004;55.096;38.760;2023-05-07T13:44:58;101352.09;;;9.83;27.03
77079;BME280;66004;55.096;38.760;2023-05-07T13:47:24;101365.31;;;10.01;26.74
77079;BME280;66004;55.096;38.760;2023-05-07T13:49:49;101363.13;;;9.98;26.85
77079;BME280;66004;55.096;38.760;2023-05-07T13:52:16;101366.78;;;9.99;26.91
77079;BME280;66004;55.096;38.760;2023-05-07T13:54:41;101372.47;;;9.93;26.77